Time;durP1;ratioP1;P1;durP2;ratioP2;P2;SDS_P1;SDS_P2;PMS_P1;PMS_P2;Temp;Humidity;BMP_temperature;BMP_pressure;BME280_temperature;BME280_humidity;BME280_pressure;Samples;Min_cycle;Max_cycle;Signal;HPM_P1;HPM_P2
2023/03/29 00:02:20;;;;;;;4.47;2.90;;;;;;;-0.14;77.87;62896.50;5033507;28;20283;-56
2023/03/29 00:04:46;;;;;;;3.63;2.73;;;;;;;-0.15;78.05;62895.44;5033682;28;20305;-58
2023/03/29 00:07:12;;;;;;;2.93;2.60;;;;;;;-0.13;78.10;62898.16;5033252;28;20688;-57
2023/03/29 00:09:38;;;;;;;4.20;2.93;;;;;;;-0.31;77.74;62878.66;5033518;28;20320;-57
2023/03/29 00:12:04;;;;;;;3.63;3.00;;;;;;;-0.12;77.15;62901.69;5032100;28;20181;-55
2023/03/29 00:14:30;;;;;;;3.23;2.93;;;;;;;-0.20;77.50;62892.50;5033210;28;20309;-52
2023/03/29 00:16:56;;;;;;;4.00;2.80;;;;;;;-0.15;78.10;62898.47;5033151;28;20292;-56
2023/03/29 00:19:21;;;;;;;4.87;2.73;;;;;;;-0.12;76.83;62901.16;5032945;28;20293;-54
2023/03/29 00:21:47;;;;;;;2.60;2.40;;;;;;;-0.20;76.72;62890.56;5033076;28;20285;-54
2023/03/29 00:24:13;;;;;;;3.80;3.17;;;;;;;-0.26;77.30;62886.00;5033013;28;20214;-53
2023/03/29 00:26:38;;;;;;;3.23;2.63;;;;;;;-0.18;77.32;62892.72;5032584;28;20309;-55
2023/03/29 00:29:03;;;;;;;3.10;2.80;;;;;;;-0.15;76.27;62895.97;5033151;28;20214;-55
2023/03/29 00:31:29;;;;;;;4.90;2.77;;;;;;;-0.15;76.27;62893.50;5032858;28;20277;-54
2023/03/29 00:33:54;;;;;;;4.80;2.90;;;;;;;-0.16;76.00;62897.38;5032910;28;20307;-54
2023/03/29 00:36:21;;;;;;;3.67;2.70;;;;;;;-0.23;76.02;62886.78;5032778;28;20196;-58
2023/03/29 00:38:46;;;;;;;4.00;2.70;;;;;;;-0.17;75.50;62896.28;5040377;22;20241;-58
2023/03/29 00:41:12;;;;;;;4.30;2.63;;;;;;;-0.22;74.70;62888.41;5032940;28;20571;-55
2023/03/29 00:43:58;;;;;;;3.00;2.40;;;;;;;-0.19;74.14;62891.66;5032937;28;20285;-54
2023/03/29 00:46:25;;;;;;;6.47;2.73;;;;;;;-0.25;74.46;62884.63;5032715;28;20217;-59
2023/03/29 00:48:53;;;;;;;4.30;2.70;;;;;;;-0.24;74.00;62886.22;5032704;28;20196;-58
2023/03/29 00:51:23;;;;;;;5.87;2.73;;;;;;;-0.30;73.97;62879.75;5032568;28;20198;-58
2023/03/29 00:53:54;;;;;;;8.50;2.80;;;;;;;-0.23;73.05;62889.25;5032658;28;20259;-57
2023/03/29 00:56:25;;;;;;;2.93;2.63;;;;;;;-0.29;73.18;62880.28;5032407;28;20731;-58
2023/03/29 00:58:57;;;;;;;4.50;3.07;;;;;;;-0.20;73.59;62890.00;5032671;28;20186;-57
2023/03/29 01:01:44;;;;;;;3.20;2.67;;;;;;;-0.23;73.50;62886.78;5032369;28;20273;-57
2023/03/29 01:04:29;;;;;;;3.43;2.70;;;;;;;-0.24;73.45;62888.72;5031454;28;20606;-57
2023/03/29 01:07:01;;;;;;;5.57;2.37;;;;;;;-0.21;73.48;62891.41;5014667;28;20703;-57
2023/03/29 01:09:30;;;;;;;3.27;2.50;;;;;;;-0.27;73.61;62883.00;5030872;28;20238;-58
2023/03/29 01:12:00;;;;;;;5.43;3.10;;;;;;;-0.18;73.49;62892.72;5032279;28;20263;-58
2023/03/29 01:14:38;;;;;;;3.50;2.70;;;;;;;-0.28;73.42;62881.91;5032622;28;20306;-56
2023/03/29 01:17:05;;;;;;;3.77;2.87;;;;;;;-0.30;73.88;62879.75;5032655;28;20181;-57
2023/03/29 01:19:38;;;;;;;3.37;2.93;;;;;;;-0.31;74.06;62878.13;5014901;28;20283;-54
2023/03/29 01:22:18;;;;;;;3.00;2.50;;;;;;;-0.37;74.29;62871.63;5032540;28;20217;-54
2023/03/29 01:25:10;;;;;;;3.67;2.93;;;;;;;-0.31;74.19;62878.66;5032383;28;20214;-54
2023/03/29 01:28:02;;;;;;;3.90;3.00;;;;;;;-0.29;74.33;62880.84;5032282;28;20201;-53
2023/03/29 01:30:39;;;;;;;5.57;3.30;;;;;;;-0.31;74.29;62878.66;5032569;28;20202;-58
2023/03/29 01:33:12;;;;;;;3.30;2.70;;;;;;;-0.34;74.13;62874.88;5032241;28;20275;-59
2023/03/29 01:35:49;;;;;;;2.83;2.53;;;;;;;-0.38;74.01;62868.06;5032264;28;20210;-57
2023/03/29 01:38:20;;;;;;;7.07;3.30;;;;;;;-0.35;74.01;62876.81;5032313;28;20202;-57
2023/03/29 01:40:46;;;;;;;2.77;2.33;;;;;;;-0.33;73.34;62875.97;5032215;28;20210;-56
2023/03/29 01:43:20;;;;;;;3.20;2.93;;;;;;;-0.31;73.59;62875.66;5032284;28;20186;-56
2023/03/29 01:46:06;;;;;;;2.80;2.47;;;;;;;-0.31;73.05;62880.59;5031893;28;20232;-56
2023/03/29 01:48:43;;;;;;;2.87;2.40;;;;;;;-0.26;72.21;62886.00;5032302;28;20277;-54
2023/03/29 01:51:18;;;;;;;3.47;2.73;;;;;;;-0.26;73.01;62886.53;5032031;28;20197;-57
2023/03/29 01:53:49;;;;;;;3.80;2.83;;;;;;;-0.34;72.36;62877.88;5032020;28;20199;-58
2023/03/29 01:56:21;;;;;;;2.47;2.27;;;;;;;-0.26;72.96;62883.53;5031960;28;20195;-59
2023/03/29 01:58:52;;;;;;;4.60;2.73;;;;;;;-0.22;72.25;62887.84;5032046;28;20197;-59
2023/03/29 02:01:24;;;;;;;4.90;2.67;;;;;;;-0.32;72.78;62875.09;5031816;28;20574;-53
2023/03/29 02:03:53;;;;;;;2.97;2.20;;;;;;;-0.26;72.34;62884.06;5032098;28;20193;-52
2023/03/29 02:06:23;;;;;;;4.13;2.97;;;;;;;-0.22;71.92;62888.41;5013799;28;20213;-55
2023/03/29 02:08:50;;;;;;;2.80;2.27;;;;;;;-0.20;72.31;62892.50;5031685;28;20296;-55
2023/03/29 02:11:16;;;;;;;2.83;2.40;;;;;;;-0.26;71.73;62886.53;5031604;28;20190;-57
2023/03/29 02:13:41;;;;;;;2.93;2.30;;;;;;;-0.36;71.55;62873.25;5031663;28;20198;-56
2023/03/29 02:16:11;;;;;;;3.77;2.57;;;;;;;-0.39;71.66;62867.53;5031601;28;20189;-56
2023/03/29 02:18:43;;;;;;;20.53;4.50;;;;;;;-0.32;71.08;62880.06;5031526;28;20220;-56
2023/03/29 02:21:20;;;;;;;5.50;2.63;;;;;;;-0.34;71.88;62872.94;5030761;28;20189;-58
2023/03/29 02:23:48;;;;;;;3.33;2.40;;;;;;;-0.32;70.87;62880.06;5031560;28;20190;-58
2023/03/29 02:26:15;;;;;;;3.10;2.53;;;;;;;-0.31;71.08;62878.66;5031476;28;20228;-53
2023/03/29 02:28:41;;;;;;;2.93;2.53;;;;;;;-0.37;70.73;62871.63;5031488;28;20192;-56
2023/03/29 02:31:14;;;;;;;2.33;2.13;;;;;;;-0.33;70.79;62876.50;5031333;28;20192;-54
2023/03/29 02:33:51;;;;;;;3.97;2.53;;;;;;;-0.39;71.13;62870.00;5031526;28;20635;-58
2023/03/29 02:36:40;;;;;;;5.60;2.17;;;;;;;-0.29;70.72;62880.84;5031480;28;20193;-57
2023/03/29 02:39:08;;;;;;;4.00;2.47;;;;;;;-0.38;70.36;62871.09;5013516;28;20225;-53
2023/03/29 02:41:36;;;;;;;2.50;2.00;;;;;;;-0.36;70.45;62870.22;5031261;28;20194;-54
2023/03/29 02:44:07;;;;;;;4.00;2.60;;;;;;;-0.35;70.06;62873.78;5031441;28;20252;-56
2023/03/29 02:46:33;;;;;;;2.87;2.17;;;;;;;-0.37;70.48;62872.19;5031324;28;20282;-58
2023/03/29 02:48:59;;;;;;;5.00;2.47;;;;;;;-0.36;70.06;62875.19;5031444;28;20210;-56
2023/03/29 02:51:30;;;;;;;3.07;2.53;;;;;;;-0.38;69.84;62873.56;5030953;28;20194;-57
2023/03/29 02:54:14;;;;;;;4.47;2.10;;;;;;;-0.37;70.07;62871.63;5031348;28;20209;-59
2023/03/29 02:56:46;;;;;;;3.53;2.23;;;;;;;-0.30;70.19;62879.19;5013227;28;20663;-56
2023/03/29 02:59:13;;;;;;;2.63;2.43;;;;;;;-0.35;70.05;62873.78;5030940;28;20214;-57
2023/03/29 03:01:41;;;;;;;2.40;2.13;;;;;;;-0.34;70.22;62877.88;5031032;28;20193;-56
2023/03/29 03:04:08;;;;;;;3.10;2.23;;;;;;;-0.37;70.41;62872.19;5030922;28;20225;-54
2023/03/29 03:06:35;;;;;;;2.57;2.10;;;;;;;-0.41;70.67;62870.31;5030830;28;20209;-54
2023/03/29 03:09:01;;;;;;;6.27;2.60;;;;;;;-0.38;71.20;62868.63;5031180;28;20214;-54
2023/03/29 03:11:26;;;;;;;4.63;2.33;;;;;;;-0.36;71.19;62873.25;5030836;28;20539;-59
2023/03/29 03:13:52;;;;;;;2.93;2.30;;;;;;;-0.44;71.76;62864.06;5031099;28;20241;-54
2023/03/29 03:16:17;;;;;;;3.83;2.50;;;;;;;-0.50;72.82;62855.09;5030847;28;20235;-53
2023/03/29 03:18:44;;;;;;;5.93;3.70;;;;;;;-0.47;72.56;62861.34;5030838;28;20688;-55
2023/03/29 03:21:10;;;;;;;3.63;1.80;;;;;;;-0.53;72.75;62854.88;5030829;28;20198;-56
2023/03/29 03:23:35;;;;;;;2.77;2.30;;;;;;;-0.45;72.98;62865.44;5030808;28;20202;-57
2023/03/29 03:26:01;;;;;;;2.40;2.20;;;;;;;-0.50;73.24;62860.03;5030716;28;20260;-58
2023/03/29 03:28:27;;;;;;;3.23;2.10;;;;;;;-0.47;72.93;62861.34;5030814;28;20204;-56
2023/03/29 03:30:53;;;;;;;4.13;2.47;;;;;;;-0.52;72.80;62855.41;5030639;28;20727;-57
2023/03/29 03:33:19;;;;;;;2.33;1.97;;;;;;;-0.53;72.49;62857.34;5032108;28;20711;-58
2023/03/29 03:35:45;;;;;;;3.43;2.23;;;;;;;-0.49;72.52;62859.19;5033992;28;20205;-59
2023/03/29 03:38:11;;;;;;;4.67;2.20;;;;;;;-0.41;72.04;62869.78;5034138;28;20694;-58
2023/03/29 03:40:37;;;;;;;3.20;2.20;;;;;;;-0.49;71.72;62861.13;5033895;28;20242;-56
2023/03/29 03:43:03;;;;;;;1.83;1.57;;;;;;;-0.63;71.12;62846.53;5034038;28;20437;-58
2023/03/29 03:45:28;;;;;;;4.27;2.03;;;;;;;-0.51;71.25;62859.50;5033686;28;20749;-56
2023/03/29 03:47:54;;;;;;;2.43;2.17;;;;;;;-0.45;70.73;62862.97;5033693;28;20670;-59
2023/03/29 03:50:20;;;;;;;2.07;1.87;;;;;;;-0.55;70.07;62855.19;5033776;28;20295;-53
2023/03/29 03:52:45;;;;;;;2.43;1.73;;;;;;;-0.60;69.48;62846.75;5033799;28;20192;-54
2023/03/29 03:55:11;;;;;;;3.33;2.17;;;;;;;-0.65;68.98;62843.81;5033739;28;20682;-54
2023/03/29 03:57:36;;;;;;;3.47;2.00;;;;;;;0.42;85.15;62959.09;5016132;28;20272;-55
2023/03/29 04:00:09;;;;;;;2.10;2.00;;;;;;;-0.14;68.91;62896.50;5033563;28;20292;-55
2023/03/29 04:02:34;;;;;;;2.53;1.83;;;;;;;-0.39;68.55;62872.50;5033753;28;20672;-53
2023/03/29 04:05:02;;;;;;;2.40;1.73;;;;;;;-0.42;68.13;62866.22;5015858;28;20216;-53
2023/03/29 04:07:27;;;;;;;3.10;1.60;;;;;;;-0.39;68.01;62869.47;5033401;28;20217;-52
2023/03/29 04:09:53;;;;;;;4.33;2.17;;;;;;;-0.40;67.65;62866.44;5033474;28;20210;-54
2023/03/29 04:12:19;;;;;;;2.23;1.80;;;;;;;-0.41;67.49;62867.84;5033510;28;20189;-55
2023/03/29 04:14:46;;;;;;;1.97;1.87;;;;;;;-0.40;66.74;62871.41;5015720;28;20264;-57
2023/03/29 04:17:11;;;;;;;3.83;2.00;;;;;;;-0.56;66.82;62851.63;5033502;28;20599;-57
2023/03/29 04:19:37;;;;;;;2.77;2.00;;;;;;;-0.37;66.25;62871.63;5033821;28;20227;-58
2023/03/29 04:22:02;;;;;;;2.63;1.87;;;;;;;-0.37;65.67;62871.63;5033276;28;20239;-58
2023/03/29 04:24:28;;;;;;;1.83;1.50;;;;;;;-0.40;65.88;62868.38;5033577;28;20214;-59
2023/03/29 04:26:53;;;;;;;2.37;1.53;;;;;;;-0.38;65.62;62871.09;5033166;28;20757;-58
2023/03/29 04:29:18;;;;;;;3.07;1.70;;;;;;;-0.42;65.36;62868.69;5033242;28;20209;-58
2023/03/29 04:31:44;;;;;;;4.30;1.90;;;;;;;-0.57;65.11;62850.53;5033238;28;20190;-58
2023/03/29 04:34:09;;;;;;;2.37;1.60;;;;;;;-0.34;65.24;62877.88;5033305;28;20682;-59
2023/03/29 04:36:34;;;;;;;2.20;1.93;;;;;;;1.10;85.68;63030.25;5033183;28;20194;-58
2023/03/29 04:39:00;;;;;;;1.60;1.50;;;;;;;1.96;75.97;63119.94;5033225;28;20708;-59
2023/03/29 04:41:27;;;;;;;2.50;1.80;;;;;;;2.32;66.61;63161.50;5033004;28;20277;-53
2023/03/29 04:43:54;;;;;;;2.97;1.73;;;;;;;1.16;67.31;63036.22;5032798;28;20227;-54
2023/03/29 04:46:20;;;;;;;2.43;2.23;;;;;;;3.42;87.64;63277.88;5032199;28;20209;-56
2023/03/29 04:48:46;;;;;;;2.90;2.07;;;;;;;1.29;61.17;63053.34;5033044;28;20274;-56
2023/03/29 04:51:11;;;;;;;3.27;2.17;;;;;;;0.69;62.45;62985.84;5032912;28;20194;-56
2023/03/29 04:53:37;;;;;;;4.17;1.87;;;;;;;0.16;64.71;62928.44;5032725;28;20679;-56
2023/03/29 04:56:02;;;;;;;5.10;2.57;;;;;;;-0.03;65.40;62911.44;5032774;28;20220;-56
2023/03/29 04:58:28;;;;;;;4.57;1.83;;;;;;;-0.06;65.70;62900.75;5033028;28;20666;-56
2023/03/29 05:00:57;;;;;;;3.43;2.50;;;;;;;-0.39;65.94;62872.50;5032734;28;20238;-54
2023/03/29 05:03:23;;;;;;;2.57;1.87;;;;;;;-0.20;65.64;62890.56;5014965;28;20226;-54
2023/03/29 05:05:49;;;;;;;3.13;2.00;;;;;;;-0.16;65.42;62894.91;5032583;28;20696;-55
2023/03/29 05:08:20;;;;;;;2.30;2.10;;;;;;;-0.17;65.55;62893.28;5032615;28;20205;-54
2023/03/29 05:10:46;;;;;;;4.87;1.80;;;;;;;-0.25;65.08;62884.63;5032518;28;20715;-56
2023/03/29 05:13:11;;;;;;;4.47;2.13;;;;;;;-0.17;65.09;62896.28;5032493;28;20197;-54
2023/03/29 05:15:37;;;;;;;3.13;2.13;;;;;;;-0.15;64.57;62897.91;5032666;28;20220;-55
2023/03/29 05:18:02;;;;;;;2.27;1.50;;;;;;;-0.16;63.30;62894.91;5032220;28;20193;-55
2023/03/29 05:20:28;;;;;;;7.27;4.77;;;;;;;1.13;100.00;63032.97;5014628;28;20264;-56
2023/03/29 05:22:55;;;;;;;3.77;2.03;;;;;;;3.40;69.04;63278.75;5032622;28;20197;-56
2023/03/29 05:25:20;;;;;;;2.10;1.70;;;;;;;1.55;60.42;63079.06;5032281;28;20206;-59
2023/03/29 05:27:46;;;;;;;2.40;1.70;;;;;;;0.84;59.93;63000.16;5032511;28;20256;-59
2023/03/29 05:30:14;;;;;;;1.80;1.50;;;;;;;0.48;61.13;62960.63;5032484;28;20296;-59
2023/03/29 05:32:40;;;;;;;1.97;1.77;;;;;;;0.25;60.32;62940.66;5032289;28;20198;-59
2023/03/29 05:35:06;;;;;;;3.10;1.93;;;;;;;0.24;61.78;62940.13;5032440;28;20237;-58
2023/03/29 05:37:33;;;;;;;2.33;2.13;;;;;;;0.15;61.41;62927.34;5032139;28;20194;-55
2023/03/29 05:39:59;;;;;;;2.50;2.10;;;;;;;0.20;62.08;62935.25;5032066;28;20606;-55
2023/03/29 05:42:25;;;;;;;3.03;1.90;;;;;;;0.11;62.35;62926.06;5031930;28;20271;-56
2023/03/29 05:44:50;;;;;;;7.20;2.37;;;;;;;0.35;61.97;62946.53;5031994;28;20252;-57
2023/03/29 05:47:16;;;;;;;2.50;1.90;;;;;;;0.14;62.72;62928.75;5032116;28;20217;-53
2023/03/29 05:49:41;;;;;;;2.97;1.67;;;;;;;0.09;63.21;62918.94;5032275;28;20232;-55
2023/03/29 05:52:06;;;;;;;1.57;1.37;;;;;;;0.25;63.09;62935.72;5031924;28;20190;-55
2023/03/29 05:54:32;;;;;;;1.87;1.60;;;;;;;0.37;63.00;62951.72;5032098;28;20256;-55
2023/03/29 05:56:57;;;;;;;1.77;1.57;;;;;;;0.48;61.73;62963.66;5013829;28;20196;-56
2023/03/29 05:59:23;;;;;;;3.00;1.93;;;;;;;0.43;61.99;62957.69;5032015;28;20214;-58
2023/03/29 06:01:48;;;;;;;2.83;2.13;;;;;;;0.32;61.67;62945.78;5031796;28;20647;-57
2023/03/29 06:04:14;;;;;;;3.37;1.93;;;;;;;0.59;61.27;62978.03;5031642;28;20206;-57
2023/03/29 06:06:40;;;;;;;2.17;1.97;;;;;;;0.62;60.99;62978.81;5031617;28;20214;-57
2023/03/29 06:09:06;;;;;;;3.17;1.93;;;;;;;0.58;61.47;62973.94;5032225;28;20210;-57
2023/03/29 06:11:33;;;;;;;2.90;1.77;;;;;;;0.58;61.51;62974.47;5031681;28;20194;-55
2023/03/29 06:14:01;;;;;;;3.77;2.50;;;;;;;0.66;61.46;62982.59;5031550;28;20222;-55
2023/03/29 06:16:26;;;;;;;2.93;2.20;;;;;;;0.73;60.80;62990.72;5031635;28;20190;-56
2023/03/29 06:18:52;;;;;;;1.70;1.60;;;;;;;0.65;60.59;62979.03;5031639;28;20742;-55
2023/03/29 06:21:17;;;;;;;3.27;2.20;;;;;;;0.73;60.71;62987.69;5031760;28;20182;-55
2023/03/29 06:23:42;;;;;;;5.90;1.70;;;;;;;0.80;60.03;63003.25;5031445;28;20198;-56
2023/03/29 06:26:09;;;;;;;5.57;1.90;;;;;;;0.73;59.74;62987.69;5031327;28;20233;-56
2023/03/29 06:28:35;;;;;;;6.73;2.53;;;;;;;0.90;59.69;63011.06;5031687;28;20201;-56
2023/03/29 06:31:00;;;;;;;5.73;3.20;;;;;;;0.81;59.60;62999.38;5031355;28;20186;-55
2023/03/29 06:33:29;;;;;;;2.00;1.90;;;;;;;0.84;59.08;63002.63;5031492;28;20648;-54
2023/03/29 06:35:55;;;;;;;2.30;1.73;;;;;;;0.85;58.89;63003.72;5031133;28;20206;-56
2023/03/29 06:38:20;;;;;;;3.50;2.37;;;;;;;0.82;58.96;63002.41;5031352;28;20200;-54
2023/03/29 06:40:47;;;;;;;4.03;2.03;;;;;;;0.87;59.36;63004.81;5031232;28;20209;-55
2023/03/29 06:43:12;;;;;;;4.83;1.80;;;;;;;0.98;58.69;63014.78;5031368;28;20715;-54
2023/03/29 06:45:39;;;;;;;3.77;2.60;;;;;;;1.04;59.40;63023.22;5031005;28;20293;-55
2023/03/29 06:48:06;;;;;;;2.93;1.97;;;;;;;1.04;58.85;63023.22;5031009;28;20668;-54
2023/03/29 06:50:33;;;;;;;2.67;1.90;;;;;;;1.10;57.93;63027.25;5031044;28;20241;-54
2023/03/29 06:52:59;;;;;;;3.10;2.80;;;;;;;1.06;57.87;63028.41;5031268;28;20222;-53
2023/03/29 06:55:25;;;;;;;2.93;1.87;;;;;;;1.24;58.02;63044.88;5031085;28;20617;-57
2023/03/29 06:57:52;;;;;;;2.53;2.23;;;;;;;1.31;57.93;63052.50;5031226;28;20209;-56
2023/03/29 07:00:22;;;;;;;4.43;2.00;;;;;;;1.23;57.02;63041.88;5031093;28;20691;-57
2023/03/29 07:02:48;;;;;;;2.57;1.90;;;;;;;1.24;56.79;63042.41;5031077;28;20272;-58
2023/03/29 07:05:14;;;;;;;3.33;2.27;;;;;;;1.41;57.71;63063.31;5030854;28;20213;-56
2023/03/29 07:07:52;;;;;;;4.70;1.60;;;;;;;1.49;54.73;63072.00;5013588;28;20218;-57
2023/03/29 07:10:20;;;;;;;2.00;1.80;;;;;;;1.47;54.38;63070.38;5034459;28;20236;-59
2023/03/29 07:12:50;;;;;;;1.73;1.30;;;;;;;1.47;54.03;63070.38;5034376;28;20247;-57
2023/03/29 07:15:16;;;;;;;1.50;1.23;;;;;;;1.43;53.61;63066.03;5034564;28;20715;-54
2023/03/29 07:17:41;;;;;;;4.43;1.50;;;;;;;1.50;53.05;63071.13;5034198;28;20190;-56
2023/03/29 07:20:12;;;;;;;2.60;1.77;;;;;;;1.50;54.13;63073.06;5034244;28;20210;-56
2023/03/29 07:22:37;;;;;;;1.60;1.27;;;;;;;1.69;53.68;63093.69;5034322;28;20182;-57
2023/03/29 07:25:11;;;;;;;2.20;1.87;;;;;;;1.78;53.72;63102.91;5034295;28;20202;-57
2023/03/29 07:27:37;;;;;;;2.83;1.47;;;;;;;1.84;52.94;63109.94;5034224;28;20230;-58
2023/03/29 07:30:09;;;;;;;2.33;1.47;;;;;;;1.95;53.12;63121.88;5033992;28;20213;-57
2023/03/29 07:32:39;;;;;;;2.80;1.60;;;;;;;1.78;52.04;63103.44;5034207;28;20273;-58
2023/03/29 07:35:07;;;;;;;1.67;1.17;;;;;;;1.88;52.28;63116.25;5041975;22;20230;-58
2023/03/29 07:37:34;;;;;;;2.67;1.67;;;;;;;2.02;51.92;63129.47;5033972;28;20208;-57
2023/03/29 07:40:02;;;;;;;2.83;1.67;;;;;;;2.02;51.88;63129.47;5034016;28;20675;-54
2023/03/29 07:42:27;;;;;;;2.10;1.23;;;;;;;2.15;51.29;63140.56;5033919;28;20248;-60
2023/03/29 07:44:53;;;;;;;1.93;1.40;;;;;;;2.08;51.31;63135.44;5034044;28;20610;-59
2023/03/29 07:47:18;;;;;;;5.97;2.30;;;;;;;2.15;51.99;63143.03;5033843;28;20301;-56
2023/03/29 07:49:44;;;;;;;1.70;1.50;;;;;;;2.42;51.14;63174.81;5033847;28;20218;-55
2023/03/29 07:52:10;;;;;;;2.97;1.73;;;;;;;2.22;51.26;63148.16;5033717;28;20682;-57
2023/03/29 07:54:35;;;;;;;2.13;1.67;;;;;;;2.31;51.45;63160.94;5033818;28;20221;-59
2023/03/29 07:57:01;;;;;;;3.03;1.57;;;;;;;2.42;50.27;63172.88;5033741;28;20244;-53
2023/03/29 07:59:26;;;;;;;2.70;1.80;;;;;;;2.33;50.89;63163.09;5033812;28;20229;-54
2023/03/29 08:01:54;;;;;;;3.40;1.40;;;;;;;2.41;51.13;63169.31;5033598;28;20192;-54
2023/03/29 08:04:19;;;;;;;1.93;1.23;;;;;;;2.59;50.45;63190.78;5033819;28;20220;-55
2023/03/29 08:06:45;;;;;;;5.30;1.53;;;;;;;2.44;49.27;63175.03;5033630;28;20209;-54
2023/03/29 08:09:11;;;;;;;3.03;1.50;;;;;;;2.36;48.33;63168.31;5033601;28;20626;-56
2023/03/29 08:11:38;;;;;;;3.27;1.70;;;;;;;2.35;47.61;63165.28;5033623;28;20187;-55
2023/03/29 08:14:05;;;;;;;2.73;1.43;;;;;;;2.36;47.95;63165.81;5033480;28;20297;-55
2023/03/29 08:16:31;;;;;;;2.20;1.57;;;;;;;2.39;47.90;63169.63;5015529;28;20197;-56
2023/03/29 08:18:56;;;;;;;2.90;2.30;;;;;;;2.66;49.60;63197.84;5015438;28;20604;-59
2023/03/29 08:21:22;;;;;;;1.50;1.27;;;;;;;2.92;49.88;63226.63;5033305;28;20279;-54
2023/03/29 08:23:47;;;;;;;1.90;1.10;;;;;;;2.86;47.93;63222.59;5033296;28;20183;-58
2023/03/29 08:26:14;;;;;;;3.73;1.50;;;;;;;2.90;47.88;63224.44;5033218;28;20708;-54
2023/03/29 08:28:40;;;;;;;1.80;1.40;;;;;;;3.00;48.19;63235.31;5033315;28;20190;-56
2023/03/29 08:31:08;;;;;;;2.10;1.20;;;;;;;3.08;47.58;63243.44;5033328;28;20221;-52
2023/03/29 08:33:34;;;;;;;1.93;1.37;;;;;;;3.03;46.14;63236.06;5033084;28;20186;-58
2023/03/29 08:35:59;;;;;;;1.67;1.10;;;;;;;2.89;46.84;63223.34;5033045;28;20182;-55
2023/03/29 08:38:25;;;;;;;1.47;0.90;;;;;;;3.12;46.86;63248.34;5033019;28;20192;-58
2023/03/29 08:40:51;;;;;;;2.10;1.37;;;;;;;3.21;46.73;63257.56;5033141;28;20210;-59
2023/03/29 08:43:23;;;;;;;1.97;1.37;;;;;;;3.34;46.02;63271.69;5033204;28;20685;-56
2023/03/29 08:45:48;;;;;;;1.13;0.83;;;;;;;3.39;45.67;63277.66;5032825;28;20218;-57
2023/03/29 08:48:31;;;;;;;2.00;1.20;;;;;;;3.27;45.81;63261.59;5032893;28;20181;-55
2023/03/29 08:51:03;;;;;;;1.83;1.17;;;;;;;3.45;43.20;63283.09;5032908;28;20267;-58
2023/03/29 08:53:37;;;;;;;3.13;1.37;;;;;;;3.40;42.66;63278.75;5033061;28;20206;-59
2023/03/29 08:56:29;;;;;;;4.87;3.50;;;;;;;3.90;40.67;63332.53;5032811;28;20268;-54
2023/03/29 08:58:56;;;;;;;3.83;1.30;;;;;;;3.66;38.68;63303.41;5032564;28;20206;-54
2023/03/29 09:01:23;;;;;;;4.77;1.40;;;;;;;3.62;39.22;63302.09;5032748;28;20210;-55
2023/03/29 09:04:15;;;;;;;2.40;1.00;;;;;;;3.70;39.07;63307.75;5032714;28;20202;-54
2023/03/29 09:06:41;;;;;;;3.03;1.27;;;;;;;3.85;38.91;63326.56;5032642;28;20248;-54
2023/03/29 09:09:20;;;;;;;2.57;1.20;;;;;;;4.06;38.81;63346.91;5032563;28;20215;-54
2023/03/29 09:11:52;;;;;;;5.23;1.80;;;;;;;4.37;38.56;63383.09;5032428;28;20317;-54
2023/03/29 09:14:39;;;;;;;2.23;1.30;;;;;;;4.70;38.19;63419.00;5032552;28;20240;-54
2023/03/29 09:17:29;;;;;;;1.50;1.00;;;;;;;5.01;38.22;63455.22;5032500;28;20209;-55
2023/03/29 09:20:29;;;;;;;1.13;1.03;;;;;;;4.94;37.84;63445.13;5032484;28;20253;-55
2023/03/29 09:23:06;;;;;;;2.77;1.27;;;;;;;5.03;37.28;63451.84;5032324;28;20334;-53
2023/03/29 09:25:52;;;;;;;2.10;1.37;;;;;;;4.97;37.16;63448.38;5032201;28;20302;-56
2023/03/29 09:28:28;;;;;;;4.50;1.47;;;;;;;5.09;36.22;63461.44;5032408;28;20204;-53
2023/03/29 09:31:02;;;;;;;1.70;1.13;;;;;;;4.97;36.09;63448.38;5031330;28;20220;-53
2023/03/29 09:33:33;;;;;;;2.40;1.37;;;;;;;4.86;36.59;63433.38;5014283;28;20179;-53
2023/03/29 09:36:06;;;;;;;3.50;1.57;;;;;;;5.01;36.66;63452.72;5031991;28;20206;-54
2023/03/29 09:38:36;;;;;;;3.43;1.10;;;;;;;5.25;36.65;63475.25;5032056;28;20194;-54
2023/03/29 09:41:13;;;;;;;5.83;2.07;;;;;;;5.46;35.60;63500.63;5031979;28;20211;-54
2023/03/29 09:43:41;;;;;;;2.63;1.40;;;;;;;5.71;34.95;63527.84;5031857;28;20200;-52
2023/03/29 09:46:19;;;;;;;3.20;1.70;;;;;;;5.73;35.44;63527.53;5031654;28;20232;-52
2023/03/29 09:48:47;;;;;;;3.77;2.07;;;;;;;5.84;34.73;63542.00;5032031;28;20326;-57
2023/03/29 09:51:13;;;;;;;3.67;1.40;;;;;;;5.61;33.37;63514.47;5014137;28;20307;-53
2023/03/29 09:53:38;;;;;;;1.10;0.90;;;;;;;5.65;35.57;63521.31;5031487;28;20251;-53
2023/03/29 09:56:05;;;;;;;1.90;1.10;;;;;;;5.83;36.37;63540.91;5031849;28;20639;-57
2023/03/29 09:58:31;;;;;;;3.00;1.47;;;;;;;6.20;35.84;63576.22;5013916;28;20335;-53
2023/03/29 10:00:59;;;;;;;1.13;1.00;;;;;;;6.22;33.08;63580.38;5031725;28;20209;-53
2023/03/29 10:03:27;;;;;;;4.97;0.93;;;;;;;5.95;32.66;63554.00;5031240;28;20204;-53
2023/03/29 10:05:56;;;;;;;3.00;1.30;;;;;;;6.99;37.70;63666.81;5031289;28;20763;-55
2023/03/29 10:08:30;;;;;;;3.70;1.30;;;;;;;7.15;40.61;63681.75;5031408;28;20216;-52
2023/03/29 10:10:58;;;;;;;1.67;1.13;;;;;;;8.23;47.28;63798.53;5031226;28;20228;-53
2023/03/29 10:13:30;;;;;;;4.27;1.10;;;;;;;7.04;32.80;63669.78;5031235;28;20236;-52
2023/03/29 10:16:15;;;;;;;1.27;1.00;;;;;;;6.27;33.08;63583.88;5030946;28;20216;-51
2023/03/29 10:18:41;;;;;;;1.80;1.50;;;;;;;6.61;33.56;63622.88;5031144;28;20212;-52
2023/03/29 10:21:12;;;;;;;2.30;1.33;;;;;;;6.36;33.03;63596.16;5030976;28;20214;-52
2023/03/29 10:23:37;;;;;;;1.80;0.97;;;;;;;6.43;33.93;63606.31;5031064;28;20201;-53
2023/03/29 10:26:10;;;;;;;3.77;1.10;;;;;;;6.50;33.13;63613.94;5030720;28;20715;-53
2023/03/29 10:28:37;;;;;;;1.13;0.93;;;;;;;6.15;33.18;63572.75;5030858;28;20271;-52
2023/03/29 10:31:04;;;;;;;2.47;1.00;;;;;;;6.62;32.84;63627.03;5030882;28;20854;-53
2023/03/29 10:33:32;;;;;;;2.23;0.93;;;;;;;6.65;33.04;63627.25;5013129;28;20201;-53
2023/03/29 10:35:59;;;;;;;3.27;1.50;;;;;;;6.58;32.22;63622.13;5030774;28;20261;-52
2023/03/29 10:38:28;;;;;;;1.57;1.17;;;;;;;6.88;32.60;63652.31;5030746;28;20205;-52
2023/03/29 10:41:02;;;;;;;2.23;1.30;;;;;;;6.65;32.59;63629.75;5030525;28;20244;-52
2023/03/29 10:43:36;;;;;;;3.27;1.00;;;;;;;6.39;32.06;63601.94;5029796;28;20410;-53
2023/03/29 10:46:07;;;;;;;2.13;1.00;;;;;;;6.63;32.36;63628.09;5030622;28;20217;-54
2023/03/29 10:48:34;;;;;;;4.57;1.33;;;;;;;6.95;32.23;63661.91;5030597;28;20304;-52
2023/03/29 10:51:01;;;;;;;1.70;1.13;;;;;;;6.70;31.42;63635.75;5030554;28;20700;-58
2023/03/29 10:53:33;;;;;;;2.27;1.00;;;;;;;6.93;31.68;63662.25;5030578;28;20205;-53
2023/03/29 10:56:29;;;;;;;0.97;0.77;;;;;;;6.79;30.21;63642.50;5030720;28;20210;-54
2023/03/29 10:59:16;;;;;;;1.40;1.07;;;;;;;7.28;30.54;63697.91;5030605;28;20221;-53
2023/03/29 11:01:41;;;;;;;1.47;0.93;;;;;;;7.06;30.64;63671.41;5030622;28;20660;-53
2023/03/29 11:04:41;;;;;;;1.93;1.10;;;;;;;6.64;32.04;63626.16;5030572;28;20303;-52
2023/03/29 11:07:28;;;;;;;1.63;0.90;;;;;;;7.04;30.84;63669.22;5030793;28;20233;-53
2023/03/29 11:10:25;;;;;;;1.70;1.20;;;;;;;7.18;29.37;63687.00;5030931;28;20217;-53
2023/03/29 11:13:39;;;;;;;2.37;0.90;;;;;;;7.30;30.79;63695.06;5030834;28;20239;-54
2023/03/29 11:16:19;;;;;;;0.80;0.80;;;;;;;7.03;30.30;63665.63;5000437;28;20252;-54
2023/03/29 11:19:03;;;;;;;2.30;0.83;;;;;;;7.13;30.69;63676.53;5030561;28;20741;-53
2023/03/29 11:21:38;;;;;;;2.43;0.90;;;;;;;7.81;29.63;63755.75;5030726;28;20258;-53
2023/03/29 11:24:15;;;;;;;2.03;1.07;;;;;;;7.96;30.22;63774.63;5030551;28;20249;-53
2023/03/29 11:27:06;;;;;;;2.87;0.77;;;;;;;7.93;29.69;63765.78;5030358;28;20700;-55
2023/03/29 11:29:53;;;;;;;1.23;1.00;;;;;;;7.63;29.43;63733.59;5030851;28;20214;-52
2023/03/29 11:32:32;;;;;;;0.73;0.70;;;;;;;7.89;29.02;63761.41;5012750;28;20259;-57
2023/03/29 11:35:24;;;;;;;1.10;0.83;;;;;;;7.91;29.82;63763.59;5030299;28;20242;-56
2023/03/29 11:38:00;;;;;;;1.07;0.80;;;;;;;7.81;29.63;63752.69;5030370;28;20232;-58
2023/03/29 11:40:34;;;;;;;0.70;0.70;;;;;;;8.11;29.98;63785.97;5030325;28;20218;-57
2023/03/29 11:43:05;;;;;;;1.30;0.90;;;;;;;8.24;30.12;63804.66;5030210;28;20238;-58
2023/03/29 11:45:38;;;;;;;2.13;1.00;;;;;;;7.79;30.51;63751.06;5012471;28;20245;-58
2023/03/29 11:48:11;;;;;;;2.40;1.10;;;;;;;7.88;29.64;63760.34;5030289;28;20288;-57
2023/03/29 11:50:59;;;;;;;4.43;0.73;;;;;;;8.59;29.22;63837.88;5030482;28;20210;-57
2023/03/29 11:53:39;;;;;;;1.80;0.90;;;;;;;8.42;28.94;63817.34;5029925;28;20214;-59